Dobrodošli na spletni strani vremenske postaje Senovo. Vse informacije so informativnega značaja, saj vremenska postaja ni del državne mreže meteoroloških postaj. OBVESTILO: Letni količini padavin navedeni na spletni strani je potrebno prišteti 98,1 mm, zaradi izgube podatkov.


Posebna pozornost v zvezi z vremenskimi dogajanji ni potrebna.    Posebna pozornost v zvezi z vremenskimi dogajanji ni potrebna.

Pogled proti Armezu več informacij Pogled proti Armezu


Lisca več informacij Lisca


Radar strel več informacij blitzortung!


Radar padavin več informacij rain snow radar


Obiščite še:

Template documentation
and downloads

And another site



Weather Underground, zgodovina - Tekstovno

Dnevni povzetek za Avgust 8, 2017 Enote:  Metrično    Angleško   Obe
« Predhodni Dan
Naslednji Dan »
Dnevni Tedenski Mesečni Letni Po meri
  Višja: Nižja: Povprečje:
Temperatura: 29.2 °C 0.0 °C 21.9 °C
Točka rosišča: 19.3 °C 15.0 °C 17.5 °C
Vlažnost: 91 % 0 % 77 %
Hitrost vetra: 6.1 km/h 0.0 km/h 1.6 km/h
Sunki vetra: 15.4 km/h - -
Veter:- - SSW
Zračni tlak: 1018.8 hPa 0.0 hPa -
Padavine: 0.0 mm    
Historical Graphs
 
 
Tabelarni podarki za Avgust 8, 2017
Čas Temperatura Točka rosišča Zračni tlak Veter Hitrost vetra Sunki vetra Vlažnost Intenziteta padavin (urna)
00:03 18.5 °C 15.4 °C 1018.8 hPa Calm     82 % 0.0 mm
00:08 18.6 °C 15.4 °C 1018.8 hPa Calm     82 % 0.0 mm
00:13 18.6 °C 15.4 °C 1018.8 hPa Calm     82 % 0.0 mm
00:18 18.6 °C 15.4 °C 1018.8 hPa Calm     82 % 0.0 mm
00:23 18.6 °C 15.4 °C 1018.8 hPa Calm     82 % 0.0 mm
00:28 18.6 °C 15.4 °C 1018.8 hPa Calm     82 % 0.0 mm
00:33 18.6 °C 15.4 °C 1018.8 hPa Calm     82 % 0.0 mm
00:38 18.6 °C 15.4 °C 1018.8 hPa Calm     82 % 0.0 mm
00:43 18.6 °C 15.4 °C 1018.8 hPa Calm     82 % 0.0 mm
00:48 18.6 °C 15.4 °C 1018.8 hPa Calm     82 % 0.0 mm
00:53 18.6 °C 15.4 °C 1018.2 hPa Calm     82 % 0.0 mm
00:58 18.6 °C 15.7 °C 1018.2 hPa Calm     83 % 0.0 mm
01:03 18.7 °C 15.6 °C 1018.2 hPa Calm     82 % 0.0 mm
01:13 18.7 °C 15.8 °C 1018.8 hPa Calm     83 % 0.0 mm
01:18 18.6 °C 15.7 °C 1018.8 hPa Calm     83 % 0.0 mm
01:23 18.7 °C 15.8 °C 1018.2 hPa Calm     83 % 0.0 mm
01:28 18.6 °C 15.4 °C 1018.2 hPa Calm     82 % 0.0 mm
01:33 18.6 °C 15.7 °C 1018.2 hPa Calm     83 % 0.0 mm
01:38 18.6 °C 15.7 °C 1018.2 hPa Calm     83 % 0.0 mm
01:39 18.6 °C 15.7 °C 1018.2 hPa Calm     83 % 0.0 mm
01:44 18.6 °C 15.7 °C 1018.2 hPa Calm     83 % 0.0 mm
01:49 18.6 °C 15.7 °C 1018.2 hPa Calm     83 % 0.0 mm
01:54 18.6 °C 15.7 °C 1018.2 hPa Calm     83 % 0.0 mm
01:59 18.6 °C 15.7 °C 1018.2 hPa Calm     83 % 0.0 mm
02:04 18.5 °C 15.6 °C 1018.2 hPa Calm     83 % 0.0 mm
02:09 18.4 °C 15.4 °C 1018.2 hPa Calm     83 % 0.0 mm
02:14 18.4 °C 15.4 °C 1018.2 hPa Calm     83 % 0.0 mm
02:19 18.4 °C 15.7 °C 1018.2 hPa Calm     84 % 0.0 mm
02:24 18.3 °C 15.6 °C 1018.2 hPa Calm     84 % 0.0 mm
02:34 18.3 °C 15.6 °C 1018.2 hPa Calm     84 % 0.0 mm
02:39 18.3 °C 15.6 °C 1018.2 hPa Calm     84 % 0.0 mm
02:44 18.3 °C 15.7 °C 1018.2 hPa Calm     85 % 0.0 mm
02:49 18.3 °C 15.7 °C 1016.8 hPa Calm     85 % 0.0 mm
02:54 18.3 °C 15.7 °C 1016.8 hPa Calm     85 % 0.0 mm
02:59 18.3 °C 15.7 °C 1016.8 hPa Calm     85 % 0.0 mm
03:04 18.2 °C 15.6 °C 1016.8 hPa Calm     85 % 0.0 mm
03:09 18.2 °C 15.6 °C 1016.8 hPa Calm     85 % 0.0 mm
03:14 18.2 °C 15.6 °C 1016.8 hPa Calm     85 % 0.0 mm
03:16 18.2 °C 15.6 °C 1016.8 hPa Calm     85 % 0.0 mm
03:21 18.2 °C 15.6 °C 1016.8 hPa Calm     85 % 0.0 mm
03:26 18.1 °C 15.7 °C 1016.8 hPa Calm     86 % 0.0 mm
03:31 18.1 °C 15.6 °C 1016.8 hPa Calm     85 % 0.0 mm
03:36 18.1 °C 15.7 °C 1018.2 hPa Calm     86 % 0.0 mm
03:45 18.0 °C 15.6 °C 1018.2 hPa Calm     86 % 0.0 mm
03:50 18.0 °C 15.6 °C 1018.2 hPa Calm     86 % 0.0 mm
03:55 17.9 °C 15.7 °C 1018.2 hPa Calm     87 % 0.0 mm
04:00 17.9 °C 15.7 °C 1018.2 hPa Calm     87 % 0.0 mm
04:05 17.8 °C 15.6 °C 1016.8 hPa Calm     87 % 0.0 mm
04:10 17.8 °C 15.4 °C 1016.8 hPa Calm     86 % 0.0 mm
04:15 17.7 °C 15.3 °C 1016.8 hPa Calm     86 % 0.0 mm
04:20 17.6 °C 15.2 °C 1018.2 hPa Calm     86 % 0.0 mm
04:25 17.5 °C 15.3 °C 1018.2 hPa Calm     87 % 0.0 mm
04:30 17.3 °C 15.1 °C 1018.2 hPa Calm     87 % 0.0 mm
04:35 17.3 °C 15.3 °C 1018.2 hPa Calm     88 % 0.0 mm
04:40 17.2 °C 15.2 °C 1018.2 hPa Calm     88 % 0.0 mm
04:45 17.2 °C 15.2 °C 1018.2 hPa Calm     88 % 0.0 mm
04:50 17.1 °C 15.1 °C 1018.2 hPa Calm     88 % 0.0 mm
04:55 17.0 °C 15.0 °C 1018.2 hPa Calm     88 % 0.0 mm
05:00 17.0 °C 15.2 °C 1018.2 hPa Calm     89 % 0.0 mm
05:05 16.9 °C 15.1 °C 1018.2 hPa Calm     89 % 0.0 mm
05:10 16.9 °C 15.1 °C 1018.2 hPa Calm     89 % 0.0 mm
05:17 16.9 °C 15.1 °C 1018.2 hPa Calm     89 % 0.0 mm
05:22 16.9 °C 15.2 °C 1018.2 hPa Calm     90 % 0.0 mm
05:24 16.9 °C 15.2 °C 1018.2 hPa Calm     90 % 0.0 mm
05:28 16.9 °C 15.2 °C 1018.2 hPa Calm     90 % 0.0 mm
05:29 17.0 °C 15.3 °C 1018.2 hPa Calm     90 % 0.0 mm
05:32 17.0 °C 15.3 °C 1018.2 hPa Calm     90 % 0.0 mm
05:37 17.0 °C 15.3 °C 1018.2 hPa Calm     90 % 0.0 mm
05:42 17.0 °C 15.3 °C 1018.2 hPa Calm     90 % 0.0 mm
05:47 17.1 °C 15.4 °C 1018.2 hPa Calm     90 % 0.0 mm
05:53 17.1 °C 15.4 °C 1018.2 hPa Calm     90 % 0.0 mm
05:58 17.2 °C 15.7 °C 1018.2 hPa Calm     91 % 0.0 mm
06:03 17.2 °C 15.7 °C 1018.2 hPa Calm     91 % 0.0 mm
06:08 17.2 °C 15.7 °C 1018.2 hPa Calm     91 % 0.0 mm
06:13 17.2 °C 15.7 °C 1018.2 hPa Calm     91 % 0.0 mm
06:18 17.3 °C 15.8 °C 1018.2 hPa Calm     91 % 0.0 mm
06:23 17.3 °C 15.8 °C 1018.2 hPa Calm     91 % 0.0 mm
06:28 17.4 °C 15.9 °C 1018.2 hPa Calm     91 % 0.0 mm
06:33 17.5 °C 16.0 °C 1018.2 hPa Calm     91 % 0.0 mm
06:38 17.5 °C 16.0 °C 1018.2 hPa Calm     91 % 0.0 mm
06:43 17.6 °C 16.1 °C 1018.2 hPa Calm     91 % 0.0 mm
06:48 17.7 °C 16.2 °C 1018.2 hPa Calm     91 % 0.0 mm
06:53 17.7 °C 16.2 °C 1018.2 hPa Calm     91 % 0.0 mm
06:58 17.8 °C 16.1 °C 1018.2 hPa Calm     90 % 0.0 mm
07:03 17.9 °C 16.2 °C 1018.2 hPa Calm     90 % 0.0 mm
07:08 18.0 °C 16.3 °C 1018.2 hPa Calm     90 % 0.0 mm
07:13 18.1 °C 16.4 °C 1018.2 hPa Calm     90 % 0.0 mm
07:18 18.2 °C 16.6 °C 1018.2 hPa Calm     90 % 0.0 mm
07:23 18.2 °C 16.3 °C 1018.2 hPa Calm     89 % 0.0 mm
07:28 18.3 °C 16.4 °C 1018.2 hPa Calm     89 % 0.0 mm
07:33 18.4 °C 16.6 °C 1018.2 hPa Calm     89 % 0.0 mm
07:38 18.4 °C 16.6 °C 1018.2 hPa Calm     89 % 0.0 mm
07:43 18.4 °C 16.6 °C 1018.2 hPa Calm     89 % 0.0 mm
07:48 18.5 °C 16.7 °C 1018.2 hPa Calm     89 % 0.0 mm
07:53 18.6 °C 16.6 °C 1018.2 hPa Calm     88 % 0.0 mm
07:58 18.7 °C 16.7 °C 1018.2 hPa Calm     88 % 0.0 mm
08:03 18.7 °C 16.7 °C 1018.2 hPa Calm     88 % 0.0 mm
08:08 18.8 °C 16.8 °C 1018.2 hPa Calm     88 % 0.0 mm
08:13 18.8 °C 16.8 °C 1018.2 hPa Calm     88 % 0.0 mm
08:18 18.9 °C 16.9 °C 1018.2 hPa Calm     88 % 0.0 mm
08:23 19.0 °C 16.8 °C 1018.2 hPa Calm     87 % 0.0 mm
08:28 19.0 °C 16.8 °C 1018.2 hPa Calm     87 % 0.0 mm
08:33 19.1 °C 16.9 °C 1018.2 hPa Calm     87 % 0.0 mm
08:38 19.3 °C 17.1 °C 1018.2 hPa Calm     87 % 0.0 mm
08:43 19.4 °C 17.2 °C 1018.2 hPa Calm     87 % 0.0 mm
08:48 19.5 °C 17.3 °C 1018.2 hPa Calm     87 % 0.0 mm
08:53 19.6 °C 17.4 °C 1018.2 hPa Calm     87 % 0.0 mm
08:58 19.7 °C 17.5 °C 1018.2 hPa Calm     87 % 0.0 mm
09:03 19.9 °C 17.5 °C 1018.2 hPa Calm     86 % 0.0 mm
09:08 20.0 °C 17.6 °C 1018.2 hPa Calm     86 % 0.0 mm
09:13 20.2 °C 17.6 °C 1018.2 hPa Calm     85 % 0.0 mm
09:18 20.3 °C 17.7 °C 1018.2 hPa South 0.5 km/h 6.9 km/h 85 % 0.0 mm
09:23 20.4 °C 17.6 °C 1018.2 hPa SSE 1.6 km/h 6.9 km/h 84 % 0.0 mm
09:28 20.5 °C 17.7 °C 1018.2 hPa SE 1.6 km/h 5.8 km/h 84 % 0.0 mm
09:33 20.6 °C 17.8 °C 1018.2 hPa SE 1.6 km/h 7.2 km/h 84 % 0.0 mm
09:38 20.7 °C 17.7 °C 1018.2 hPa SE 2.6 km/h 7.2 km/h 83 % 0.0 mm
09:43 20.8 °C 17.8 °C 1018.2 hPa SE 3.2 km/h 10.1 km/h 83 % 0.0 mm
09:48 20.8 °C 17.6 °C 1018.2 hPa ESE 4.3 km/h 10.1 km/h 82 % 0.0 mm
09:53 20.8 °C 17.6 °C 1018.2 hPa ESE 6.0 km/h 13.0 km/h 82 % 0.0 mm
09:58 20.9 °C 17.7 °C 1018.2 hPa SE 6.1 km/h 13.0 km/h 82 % 0.0 mm
10:03 21.0 °C 17.8 °C 1018.2 hPa ESE 5.1 km/h 9.7 km/h 82 % 0.0 mm
10:08 21.0 °C 17.6 °C 1018.2 hPa ESE 5.6 km/h 9.7 km/h 81 % 0.0 mm
10:13 21.1 °C 17.7 °C 1018.2 hPa ESE 4.8 km/h 9.7 km/h 81 % 0.0 mm
10:18 21.3 °C 17.9 °C 1018.2 hPa ESE 3.9 km/h 9.3 km/h 81 % 0.0 mm
10:23 21.4 °C 18.0 °C 1018.2 hPa SE 4.7 km/h 9.3 km/h 81 % 0.0 mm
10:28 21.5 °C 18.1 °C 1018.2 hPa SSE 5.0 km/h 9.3 km/h 81 % 0.0 mm
10:33 21.6 °C 18.0 °C 1018.8 hPa SE 3.5 km/h 7.9 km/h 80 % 0.0 mm
10:38 21.8 °C 18.2 °C 1018.8 hPa SE 3.1 km/h 9.3 km/h 80 % 0.0 mm
10:43 22.2 °C 18.6 °C 1018.8 hPa SSE 4.5 km/h 9.3 km/h 80 % 0.0 mm
10:48 22.5 °C 18.7 °C 1018.2 hPa SE 4.8 km/h 7.9 km/h 79 % 0.0 mm
10:51 22.6 °C 18.8 °C 1018.2 hPa SE 5.0 km/h 9.0 km/h 79 % 0.0 mm
10:56 22.7 °C 18.7 °C 1018.2 hPa SE 4.7 km/h 9.0 km/h 78 % 0.0 mm
11:01 23.0 °C 18.9 °C 1018.2 hPa SE 3.5 km/h 6.9 km/h 78 % 0.0 mm
11:06 23.1 °C 18.8 °C 1018.2 hPa ESE 2.7 km/h 6.9 km/h 77 % 0.0 mm
11:11 23.3 °C 19.1 °C 1018.2 hPa SE 2.6 km/h 6.1 km/h 77 % 0.0 mm
11:16 23.5 °C 19.0 °C 1018.2 hPa SSE 3.4 km/h 6.9 km/h 76 % 0.0 mm
11:21 23.5 °C 19.0 °C 1016.8 hPa South 2.7 km/h 6.9 km/h 76 % 0.0 mm
11:26 23.6 °C 18.7 °C 1016.8 hPa SSW 2.4 km/h 9.7 km/h 74 % 0.0 mm
11:31 23.8 °C 18.9 °C 1016.8 hPa SSE 3.4 km/h 9.7 km/h 74 % 0.0 mm
11:36 24.0 °C 19.1 °C 1016.8 hPa ESE 2.9 km/h 8.7 km/h 74 % 0.0 mm
11:41 24.2 °C 19.1 °C 1016.8 hPa SE 3.9 km/h 8.7 km/h 73 % 0.0 mm
11:46 24.3 °C 18.9 °C 1016.8 hPa SE 5.3 km/h 10.1 km/h 72 % 0.0 mm
11:51 24.2 °C 18.6 °C 1016.8 hPa South 5.5 km/h 10.1 km/h 71 % 0.0 mm
11:56 24.3 °C 18.9 °C 1016.8 hPa SSW 4.5 km/h 9.0 km/h 72 % 0.0 mm
12:01 24.3 °C 18.7 °C 1016.8 hPa SSE 5.5 km/h 11.9 km/h 71 % 0.0 mm
12:06 24.2 °C 18.4 °C 1016.8 hPa SE 5.6 km/h 11.9 km/h 70 % 0.0 mm
12:11 24.1 °C 18.3 °C 1016.8 hPa ESE 2.7 km/h 10.5 km/h 70 % 0.0 mm
12:16 24.2 °C 18.2 °C 1016.8 hPa East 1.6 km/h 6.1 km/h 69 % 0.0 mm
12:21 24.2 °C 18.2 °C 1016.8 hPa ESE 3.2 km/h 10.1 km/h 69 % 0.0 mm
12:26 24.1 °C 18.1 °C 1016.8 hPa SE 5.1 km/h 10.1 km/h 69 % 0.0 mm
12:27 24.1 °C 18.1 °C 1016.8 hPa SE 5.3 km/h 10.1 km/h 69 % 0.0 mm
12:32 24.1 °C 18.1 °C 1016.8 hPa SE 5.1 km/h 9.7 km/h 69 % 0.0 mm
12:37 24.0 °C 18.2 °C 1016.8 hPa SSE 3.7 km/h 9.7 km/h 70 % 0.0 mm
12:42 24.0 °C 18.2 °C 1016.8 hPa ESE 4.2 km/h 10.5 km/h 70 % 0.0 mm
12:47 24.3 °C 18.5 °C 1016.8 hPa East 4.0 km/h 10.5 km/h 70 % 0.0 mm
12:53 24.6 °C 18.8 °C 1016.8 hPa SE 3.7 km/h 9.0 km/h 70 % 0.0 mm
12:58 0.0 °C 19.1 °C 0.0 hPa Calm     0 % 0.0 mm
13:03 25.3 °C 18.9 °C 1016.8 hPa SSE 5.5 km/h 7.9 km/h 68 % 0.0 mm
13:05 25.3 °C 18.7 °C 1016.8 hPa South 5.0 km/h 7.9 km/h 67 % 0.0 mm
13:10 25.4 °C 18.8 °C 1016.8 hPa SSE 4.5 km/h 7.9 km/h 67 % 0.0 mm
13:14 25.6 °C 19.0 °C 1016.8 hPa SE 4.0 km/h 9.0 km/h 67 % 0.0 mm
13:19 25.9 °C 19.1 °C 1016.8 hPa ESE 4.2 km/h 9.0 km/h 66 % 0.0 mm
13:24 26.2 °C 19.1 °C 1016.8 hPa ESE 3.5 km/h 9.0 km/h 65 % 0.0 mm
13:29 26.4 °C 19.3 °C 1016.8 hPa SSE 3.7 km/h 9.3 km/h 65 % 0.0 mm
13:34 26.4 °C 18.8 °C 1016.8 hPa SSE 3.4 km/h 9.3 km/h 63 % 0.0 mm
13:39 26.7 °C 19.1 °C 1016.8 hPa SE 3.2 km/h 9.0 km/h 63 % 0.0 mm
13:44 26.8 °C 18.9 °C 1016.8 hPa SE 6.1 km/h 15.4 km/h 62 % 0.0 mm
13:49 26.9 °C 18.7 °C 1016.8 hPa ESE 6.0 km/h 15.4 km/h 61 % 0.0 mm
13:54 26.6 °C 18.2 °C 1016.8 hPa ENE 3.2 km/h 6.4 km/h 60 % 0.0 mm
13:59 26.6 °C 18.2 °C 1016.8 hPa NE 3.5 km/h 10.5 km/h 60 % 0.0 mm
14:04 26.9 °C 18.7 °C 1016.1 hPa ESE 4.7 km/h 10.5 km/h 61 % 0.0 mm
14:09 27.0 °C 18.3 °C 1016.1 hPa SSE 5.3 km/h 9.0 km/h 59 % 0.0 mm
14:14 27.2 °C 18.8 °C 1016.1 hPa South 4.0 km/h 9.0 km/h 60 % 0.0 mm
14:19 27.2 °C 18.8 °C 1016.1 hPa ESE 3.9 km/h 9.3 km/h 60 % 0.0 mm
14:24 27.2 °C 18.5 °C 1016.1 hPa ESE 4.8 km/h 9.3 km/h 59 % 0.0 mm
14:29 27.3 °C 18.8 °C 1016.1 hPa SE 4.0 km/h 7.9 km/h 60 % 0.0 mm
14:34 27.4 °C 18.7 °C 1015.1 hPa South 3.9 km/h 7.6 km/h 59 % 0.0 mm
14:35 27.4 °C 18.7 °C 1015.1 hPa South 4.0 km/h 7.6 km/h 59 % 0.0 mm
14:40 27.4 °C 18.7 °C 1015.1 hPa SE 4.7 km/h 12.2 km/h 59 % 0.0 mm
14:45 27.4 °C 18.7 °C 1015.1 hPa SE 5.6 km/h 12.2 km/h 59 % 0.0 mm
14:50 27.6 °C 18.6 °C 1016.1 hPa SE 6.0 km/h 12.2 km/h 58 % 0.0 mm
14:55 27.6 °C 18.6 °C 1016.1 hPa SE 5.8 km/h 12.2 km/h 58 % 0.0 mm
15:00 27.6 °C 18.3 °C 1016.1 hPa East 5.3 km/h 10.1 km/h 57 % 0.0 mm
15:05 27.6 °C 18.6 °C 1016.1 hPa SE 4.2 km/h 8.7 km/h 58 % 0.0 mm
15:10 27.8 °C 19.1 °C 1016.1 hPa SW 3.4 km/h 7.9 km/h 59 % 0.0 mm
15:15 28.0 °C 18.7 °C 1016.1 hPa SE 3.4 km/h 10.5 km/h 57 % 0.0 mm
15:20 28.0 °C 18.7 °C 1016.1 hPa ESE 4.3 km/h 10.5 km/h 57 % 0.0 mm
15:25 28.1 °C 18.8 °C 1016.1 hPa SE 4.7 km/h 10.1 km/h 57 % 0.0 mm
15:30 28.1 °C 18.5 °C 1016.1 hPa ESE 2.7 km/h 7.9 km/h 56 % 0.0 mm
15:35 28.1 °C 18.5 °C 1016.1 hPa SE 3.2 km/h 10.1 km/h 56 % 0.0 mm
15:40 28.1 °C 18.5 °C 1016.1 hPa SSW 3.9 km/h 10.1 km/h 56 % 0.0 mm
15:45 28.2 °C 18.6 °C 1016.1 hPa South 3.4 km/h 9.3 km/h 56 % 0.0 mm
15:50 28.3 °C 18.7 °C 1016.1 hPa SSE 4.0 km/h 9.3 km/h 56 % 0.0 mm
15:55 28.5 °C 19.2 °C 1016.1 hPa SE 5.1 km/h 9.3 km/h 57 % 0.0 mm
16:00 28.6 °C 19.2 °C 1016.1 hPa ESE 3.4 km/h 9.3 km/h 57 % 0.0 mm
16:05 28.6 °C 18.9 °C 1016.1 hPa SE 3.5 km/h 9.3 km/h 56 % 0.0 mm
16:10 28.6 °C 18.9 °C 1016.1 hPa South 2.9 km/h 9.3 km/h 56 % 0.0 mm
16:15 28.6 °C 18.7 °C 1016.1 hPa West 2.1 km/h 4.7 km/h 55 % 0.0 mm
16:20 28.5 °C 18.6 °C 1016.1 hPa NW 2.9 km/h 5.8 km/h 55 % 0.0 mm
16:25 28.5 °C 18.9 °C 1016.1 hPa North 2.4 km/h 5.8 km/h 56 % 0.0 mm
16:35 28.5 °C 18.3 °C 1015.1 hPa West 2.7 km/h 5.8 km/h 54 % 0.0 mm
16:40 28.5 °C 18.6 °C 1015.1 hPa NW 2.1 km/h 5.8 km/h 55 % 0.0 mm
16:45 28.5 °C 18.6 °C 1015.1 hPa WNW 2.1 km/h 5.5 km/h 55 % 0.0 mm
16:50 28.6 °C 18.7 °C 1014.1 hPa South 1.9 km/h 5.0 km/h 55 % 0.0 mm
16:55 28.9 °C 18.9 °C 1014.1 hPa South 3.1 km/h 6.1 km/h 55 % 0.0 mm
17:00 29.0 °C 18.8 °C 1014.1 hPa South 2.7 km/h 6.1 km/h 54 % 0.0 mm
17:05 29.0 °C 18.8 °C 1014.1 hPa SSE 2.3 km/h 6.9 km/h 54 % 0.0 mm
17:10 29.1 °C 18.8 °C 1014.1 hPa SSE 3.1 km/h 6.9 km/h 54 % 0.0 mm
17:15 29.1 °C 18.8 °C 1014.1 hPa South 3.7 km/h 9.0 km/h 54 % 0.0 mm
17:20 29.1 °C 18.6 °C 1014.1 hPa South 3.7 km/h 9.0 km/h 53 % 0.0 mm
17:25 29.2 °C 18.9 °C 1014.1 hPa South 3.4 km/h 5.8 km/h 54 % 0.0 mm
17:30 29.2 °C 18.9 °C 1014.1 hPa SSE 3.2 km/h 5.8 km/h 54 % 0.0 mm
17:36 29.2 °C 18.6 °C 1014.1 hPa South 3.1 km/h 6.9 km/h 53 % 0.0 mm
17:41 29.1 °C 18.6 °C 1014.1 hPa South 3.9 km/h 6.9 km/h 53 % 0.0 mm
17:46 28.8 °C 18.3 °C 1014.1 hPa SSW 3.9 km/h 6.9 km/h 53 % 0.0 mm
17:51 28.7 °C 18.5 °C 1014.1 hPa SSW 2.6 km/h 7.9 km/h 54 % 0.0 mm
17:56 28.5 °C 18.3 °C 1014.1 hPa South 2.4 km/h 7.9 km/h 54 % 0.0 mm
18:01 28.5 °C 18.6 °C 1014.1 hPa South 2.9 km/h 5.8 km/h 55 % 0.0 mm
18:06 28.3 °C 18.4 °C 1014.1 hPa SSE 3.1 km/h 7.9 km/h 55 % 0.0 mm
18:11 28.1 °C 18.5 °C 1014.1 hPa SE 3.7 km/h 7.9 km/h 56 % 0.0 mm
18:16 27.9 °C 18.3 °C 1014.1 hPa SE 3.1 km/h 5.8 km/h 56 % 0.0 mm
18:21 27.6 °C 18.3 °C 1014.1 hPa SSE 2.6 km/h 5.8 km/h 57 % 0.0 mm
18:26 27.4 °C 18.4 °C 1014.1 hPa SSW 2.1 km/h 5.0 km/h 58 % 0.0 mm
18:31 27.1 °C 18.1 °C 1014.1 hPa WSW 2.3 km/h 4.7 km/h 58 % 0.0 mm
18:36 26.9 °C 18.5 °C 1014.1 hPa WSW 2.6 km/h 4.7 km/h 60 % 0.0 mm
18:41 26.7 °C 18.6 °C 1014.1 hPa SW 1.9 km/h 4.7 km/h 61 % 0.0 mm
18:46 26.4 °C 19.1 °C 1014.1 hPa WSW 1.4 km/h 3.5 km/h 64 % 0.0 mm
18:51 26.2 °C 18.8 °C 1014.1 hPa NW 1.4 km/h 4.3 km/h 64 % 0.0 mm
18:56 26.0 °C 18.9 °C 1014.1 hPa NNW 1.6 km/h 4.3 km/h 65 % 0.0 mm
19:01 25.9 °C 19.3 °C 1014.1 hPa NW 0.8 km/h 3.2 km/h 67 % 0.0 mm
19:06 25.6 °C 19.0 °C 1015.1 hPa NW 0.5 km/h 3.2 km/h 67 % 0.0 mm
19:11 25.4 °C 18.8 °C 1015.1 hPa NNW 0.6 km/h 4.0 km/h 67 % 0.0 mm
19:16 25.2 °C 19.1 °C 1015.1 hPa North 0.3 km/h 4.0 km/h 69 % 0.0 mm
19:21 25.0 °C 18.9 °C 1015.1 hPa North 0.2 km/h 4.0 km/h 69 % 0.0 mm
19:26 24.8 °C 18.9 °C 1015.1 hPa NNW 1.0 km/h 4.7 km/h 70 % 0.0 mm
19:31 24.6 °C 19.0 °C 1015.1 hPa NW 1.8 km/h 4.7 km/h 71 % 0.0 mm
19:36 24.4 °C 18.8 °C 1015.1 hPa NNW 1.4 km/h 4.3 km/h 71 % 0.0 mm
19:41 24.2 °C 18.8 °C 1015.1 hPa NNW 0.6 km/h 4.0 km/h 72 % 0.0 mm
19:46 24.0 °C 18.8 °C 1015.1 hPa NNW 1.3 km/h 6.1 km/h 73 % 0.0 mm
19:51 23.9 °C 19.0 °C 1015.1 hPa NNW 2.4 km/h 6.1 km/h 74 % 0.0 mm
19:56 23.7 °C 19.0 °C 1015.1 hPa NNW 2.4 km/h 5.5 km/h 75 % 0.0 mm
20:01 23.6 °C 18.9 °C 1015.1 hPa NW 1.8 km/h 5.5 km/h 75 % 0.0 mm
20:06 23.4 °C 18.9 °C 1015.1 hPa North 1.4 km/h 4.7 km/h 76 % 0.0 mm
20:11 23.2 °C 18.9 °C 1015.1 hPa North 1.0 km/h 4.7 km/h 77 % 0.0 mm
20:16 23.0 °C 18.7 °C 1015.1 hPa Calm     77 % 0.0 mm
20:21 22.8 °C 18.8 °C 1015.1 hPa NNW 0.5 km/h 5.8 km/h 78 % 0.0 mm
20:26 22.7 °C 18.9 °C 1015.1 hPa NNW 1.1 km/h 5.8 km/h 79 % 0.0 mm
20:31 22.6 °C 18.8 °C 1015.1 hPa NNW 0.8 km/h 4.3 km/h 79 % 0.0 mm
20:36 22.4 °C 18.8 °C 1016.1 hPa NNW 0.2 km/h 3.2 km/h 80 % 0.0 mm
20:41 22.2 °C 18.8 °C 1016.1 hPa WNW 0.2 km/h 2.6 km/h 81 % 0.0 mm
20:46 22.0 °C 18.6 °C 1016.1 hPa WNW 0.2 km/h 2.6 km/h 81 % 0.0 mm
20:51 22.0 °C 18.6 °C 1016.1 hPa NNW 0.6 km/h 4.3 km/h 81 % 0.0 mm
20:56 21.8 °C 18.6 °C 1016.1 hPa NNW 1.0 km/h 4.3 km/h 82 % 0.0 mm
21:01 21.7 °C 18.7 °C 1016.1 hPa NNW 0.3 km/h 3.2 km/h 83 % 0.0 mm
21:06 21.6 °C 18.6 °C 1016.1 hPa North 0.2 km/h 2.6 km/h 83 % 0.0 mm
21:11 21.4 °C 18.6 °C 1016.1 hPa Calm   2.6 km/h 84 % 0.0 mm
21:16 21.3 °C 18.5 °C 1016.1 hPa NNW 1.0 km/h 4.0 km/h 84 % 0.0 mm
21:21 21.3 °C 18.5 °C 1016.1 hPa NNW 1.0 km/h 4.0 km/h 84 % 0.0 mm
21:24 21.2 °C 18.4 °C 1016.1 hPa North 0.3 km/h 3.2 km/h 84 % 0.0 mm
21:29 21.1 °C 18.5 °C 1016.1 hPa East 0.8 km/h 4.3 km/h 85 % 0.0 mm
21:34 21.0 °C 18.4 °C 1016.1 hPa ESE 0.8 km/h 4.3 km/h 85 % 0.0 mm
21:39 20.9 °C 18.4 °C 1016.1 hPa NW 0.3 km/h 3.2 km/h 86 % 0.0 mm
21:44 20.9 °C 18.7 °C 1016.1 hPa NW 0.3 km/h 3.2 km/h 87 % 0.0 mm
21:49 20.8 °C 18.6 °C 1016.1 hPa NW 0.2 km/h 3.2 km/h 87 % 0.0 mm
21:54 20.7 °C 18.4 °C 1016.1 hPa Calm   2.1 km/h 87 % 0.0 mm
21:59 20.6 °C 18.3 °C 1016.1 hPa Calm   2.1 km/h 87 % 0.0 mm
22:04 20.5 °C 18.3 °C 1016.1 hPa Calm     87 % 0.0 mm
22:09 20.4 °C 18.3 °C 1016.1 hPa Calm   4.0 km/h 88 % 0.0 mm
22:14 20.4 °C 18.3 °C 1016.1 hPa NNW 0.3 km/h 4.0 km/h 88 % 0.0 mm
22:19 20.4 °C 18.3 °C 1016.1 hPa NNW 0.3 km/h 4.0 km/h 88 % 0.0 mm
22:24 20.3 °C 18.2 °C 1016.1 hPa Calm     88 % 0.0 mm
22:29 20.3 °C 18.4 °C 1016.1 hPa Calm     89 % 0.0 mm
22:34 20.2 °C 18.3 °C 1016.1 hPa Calm     89 % 0.0 mm
22:39 20.1 °C 18.2 °C 1016.1 hPa Calm   1.8 km/h 89 % 0.0 mm
22:44 20.1 °C 18.2 °C 1016.1 hPa Calm   1.8 km/h 89 % 0.0 mm
22:49 20.0 °C 18.1 °C 1016.1 hPa Calm     89 % 0.0 mm
22:54 19.9 °C 18.2 °C 1016.1 hPa Calm   4.0 km/h 90 % 0.0 mm
22:59 19.9 °C 18.2 °C 1016.1 hPa NW 0.8 km/h 6.1 km/h 90 % 0.0 mm
23:04 19.9 °C 18.2 °C 1016.1 hPa North 2.4 km/h 6.1 km/h 90 % 0.0 mm
23:09 19.9 °C 18.2 °C 1016.1 hPa ENE 1.9 km/h 5.8 km/h 90 % 0.0 mm
23:14 19.9 °C 18.2 °C 1016.1 hPa NW 0.5 km/h 4.3 km/h 90 % 0.0 mm
23:19 19.9 °C 18.4 °C 1016.1 hPa NW 0.8 km/h 4.3 km/h 91 % 0.0 mm
23:24 19.8 °C 18.1 °C 1016.1 hPa NW 0.6 km/h 3.5 km/h 90 % 0.0 mm
23:29 19.8 °C 18.3 °C 1016.1 hPa NW 0.2 km/h 2.1 km/h 91 % 0.0 mm
23:34 19.7 °C 18.2 °C 1016.1 hPa Calm     91 % 0.0 mm
23:39 19.6 °C 18.1 °C 1016.1 hPa Calm     91 % 0.0 mm
23:44 19.6 °C 18.1 °C 1016.1 hPa Calm     91 % 0.0 mm
23:49 19.5 °C 18.0 °C 1016.1 hPa Calm     91 % 0.0 mm
23:54 19.5 °C 18.0 °C 1016.1 hPa NW 0.2 km/h 2.6 km/h 91 % 0.0 mm
23:59 19.4 °C 17.9 °C 1016.1 hPa NW 0.3 km/h 3.5 km/h 91 % 0.0 mm
Vremenska postaja Senovo
Podatki zbrani iz Weather Underground - 3 mb

Script developed by  Jim McMurry - jmcmurry@mwt.net Adapted for the template by  Wim van der Kuil - Leuven-Template.eu

Vremenski podatki so objavljeni na:

WeatherCloud

Weather Underground

AWEKAS

HAMweather, WeatherForYou, PWS Weather

MapView

Geostik

Slovenia weather network

Oprema, ki se uporablja:

Vremenski program
Cumulus

Cumulus